AirNav   ProFlight Series 2 Aviation Headset
 
 405 users online  

OA15 Fort Hamilton Hospital Heliport
Hamilton, Ohio, USA

GOING TO HAMILTON?


FAA INFORMATION EFFECTIVE 16 JULY 2020

Location

FAA Identifier: OA15
Lat/Long: 39-24-58.9300N 084-34-23.3800W
39-24.982167N 084-34.389667W
39.4163694,-84.5731611
(estimated)
Elevation: 700 ft. / 213 m (estimated)
Time zone: UTC -4 (UTC -5 during Standard Time)
Zip code: 45013

Heliport Operations

Heliport use: Private use, MEDICAL USE.
Activation date: 03/2007
Control tower: no
ARTCC: INDIANAPOLIS CENTER
FSS: DAYTON FLIGHT SERVICE STATION
Attendance: UNATNDD
Wind indicator: lighted
Segmented circle: no
Lights: SS-SR
Beacon: white-green-yellow (heliport)
Operates sunset to sunrise.

Heliport Communications

WX ASOS at HAO (4 nm SE): 121.425 (513-863-6137)
WX AWOS-3 at MWO (11 nm NE): 120.025 (513-422-3505)
WX AWOS-3PT at OXD (11 nm NW): 118.625 (513-273-2032)
WX AWOS-3PT at I67 (13 nm SW): 118.15 (513-569-4964)
WX AWOS-3 at I68 (15 nm E): 120.55 (513-934-5500)
WX ASOS at MGY (19 nm NE): 118.375 (937-885-2171)

Nearby radio navigation aids

VOR radial/distance  VOR name  Freq  Var
CVGr018/24.8CINCINNATI VORTAC117.3004W
MXQr273/35.8MIDWEST VOR/DME112.9004W
DQNr194/36.9DAYTON VOR/DME114.5001W

 
NDB name  Hdg/Dist  Freq  Var  ID
HOOK FIELD234/7.623904WHKF .... -.- ..-.
SPORTYS325/26.324504WPWF .--. .-- ..-.
BATESVILLE087/32.125405WHLB .... .-.. -...

Heliport Services

Runway Information

Helipad H1

Dimensions: 50 x 50 ft. / 15 x 15 m
Surface: ROOF/TOP
Runway edge lights: PERI
8 PERMETER LGTS.
Latitude: 39-24.982167N
Longitude: 084-34.389667W
Elevation: 700.0 ft.
Traffic pattern: leftleft

Heliport Ownership and Management from official FAA records

Ownership: Privately-owned
Owner: KETTERING HEALTH NETWORK
630 EATON AVE.
HAMILTON, OH 45013
Phone 513-867-2000
Manager: WILLIAM MANGAS
1 PRESTIGE PLACE, SUITE 520
MIAMISBURG, OH 45342
Phone (937) 762-1781

Additional Remarks

A52-H1 ROOFTOP HELIPAD.
HELICOPTERS REMAIN BELOW 2,000 AMSL.
FOR CD CTC CINCINNATI APCH AT 859-372-6440

Instrument Procedures

There are no published instrument procedures at OA15.

Some nearby airports with instrument procedures:

KHAO - Butler County Regional Airport-Hogan Field (4 nm SE)
KMWO - Middletown Regional Airport/Hook Field (11 nm NE)
KOXD - Miami University Airport (11 nm NW)
I67 - Cincinnati West Airport (13 nm SW)
I68 - Warren County Airport/John Lane Field (15 nm E)
KMGY - Dayton-Wright Brothers Airport (19 nm NE)
 
Loc | Ops | Rwys | IFR | FBO | Links
Com | Nav | Svcs | Stats | Notes
Area around OA15 (Fort Hamilton Hospital Heliport)
 
Road maps at: MapQuest Bing Google
 
Aerial photo
No photo
 
Sectional chart

 
Airport distance calculator
Flying to Fort Hamilton Hospital Heliport? Find the distance to fly.

From to OA15

Sunrise and sunset
Times for 10-Aug-2020
 Local
(UTC-4)
 Zulu
(UTC)
Morning civil twilight06:1910:19
Sunrise06:4810:48
Sunset20:3900:39
Evening civil twilight21:0801:08

Current date and time
Zulu (UTC)  10-Aug-2020 08:37:36
Local (UTC-4)  10-Aug-2020 04:37:36
 
METAR
KHAO 
4nm SE 
100753Z AUTO 00000KT 7SM CLR 20/19 A3008 RMK AO2 SLP182 T02000189
KMWO 
11nm NE 
100815Z AUTO 00000KT 4SM HZ CLR 18/ A3008 RMK AO2 T0184////
KOXD 
11nm NW 
100759Z AUTO 00000KT 10SM CLR 21/21 A3008 RMK AO2
KI67 
13nm SW 
100815Z AUTO 00000KT 7SM CLR 20/18 A3007 RMK AO1
KI68 
15nm E 
100815Z AUTO 00000KT 10SM CLR 21/21 A3009 RMK AO1 T02100210
KMGY 
19nm NE 
100753Z AUTO 19003KT 10SM CLR 21/18 A3008 RMK AO2 SLP176 T02110178 TSNO
TAF
KLUK 
20nm S 
100535Z 1006/1106 00000KT P6SM FEW250 FM100700 00000KT 4SM BR FEW250 TEMPO 1007/1010 1SM BR FM101200 00000KT P6SM SCT250 FM101500 20004KT P6SM VCSH BKN035 FM101700 20006KT P6SM -SHRA VCTS BKN035CB FM102000 21006KT P6SM FEW040 BKN120 FM110300 00000KT P6SM VCSH SCT035 BKN120
KCVG 
22nm S 
100535Z 1006/1112 23005KT P6SM FEW250 FM101500 20008KT P6SM VCSH BKN035 FM101700 20009KT P6SM -SHRA VCTS BKN035CB FM102000 21006KT P6SM FEW040 BKN120 FM110300 21004KT P6SM VCSH SCT035 BKN120
NOTAMs
Click for the latest NOTAMs
NOTAMs are issued by the DoD/FAA and will open in a separate window not controlled by AirNav.

 

 
 

Would you like to see your business listed on this page?

 If your business provides an interesting product or service to pilots, flight crews, aircraft, or users of the Fort Hamilton Hospital Heliport, you should consider listing it here.  To start the listing process, click on the button below
 
Add a business
 

Other Pages about Fort Hamilton Hospital Heliport

Update a link
 
Copyright © AirNav, LLC. All rights reserved. Privacy Policy  Contact